MUMZ/MZO METAR and TAF weather

Enter ICAO airport designator
Station Type Date Time Source
MUMZ METAR 2024/03/23 22:51 UTC NOAA

MUMZ 232251Z 18010KT 130V230 9000 FEW020 31/19 Q1009


Station Type Date Time Source
MUMZ Decoded METAR 2024/03/23 22:51 UTC NOAA

Manzanillo, Oriente, Cuba (MUMZ) 20-20N 077-07W 60M
Mar 23, 2024 - 06:51 PM EDT / 2024.03.23 2251 UTC
Wind: from the S (180 degrees) at 12 MPH (10 KT) (direction variable):0
Visibility: 5 mile(s):0
Sky conditions: mostly clear
Temperature: 87 F (31 C)
Dew Point: 66 F (19 C)
Relative Humidity: 48%
Pressure (altimeter): 29.80 in. Hg (1009 hPa)
ob: MUMZ 232251Z 18010KT 130V230 9000 FEW020 31/19 Q1009
cycle: 23

Station Type Date Time Source
MUMZ TAF 2024/04/12 12:00 UTC NOAA